This is the latest recevied weather packets stored in our database for station/object N1KM-15. If no packets are shown the sender has not sent any weather packets the latest 10 day(s).
| Time | Temp. | Humidity | Pressure | Rain* | Wind** | Luminosity | Snow |
|---|---|---|---|---|---|---|---|
| 1777887000 | 7.78° C | 71% | 1009.8 hPa | 0 mm | - | - | - |
| 1777886100 | 7.78° C | 71% | 1009.6 hPa | 0 mm | - | - | - |
| 1777885200 | 7.78° C | 72% | 1009.5 hPa | 0 mm | - | - | - |
| 1777884300 | 7.78° C | 73% | 1009.4 hPa | 0 mm | - | - | - |
| 1777883400 | 7.22° C | 73% | 1009.4 hPa | 0 mm | - | - | - |
| 1777882500 | 7.22° C | 72% | 1009.5 hPa | 0 mm | - | - | - |
| 1777881600 | 7.22° C | 70% | 1009.6 hPa | 0 mm | - | - | - |
| 1777880700 | 6.67° C | 74% | 1009.4 hPa | 0 mm | - | - | - |
| 1777879800 | 6.11° C | 77% | 1009.5 hPa | 0 mm | - | - | - |
| 1777878900 | 6.11° C | 75% | 1009.4 hPa | 0 mm | - | - | - |
| 1777878000 | 5° C | 78% | 1009.5 hPa | 0 mm | - | - | - |
| 1777877100 | 5° C | 76% | 1009.7 hPa | 0 mm | - | - | - |
| 1777876200 | 5° C | 74% | 1009.6 hPa | 0 mm | - | - | - |
| 1777875300 | 5° C | 73% | 1009.4 hPa | 0 mm | - | - | - |
| 1777874400 | 5° C | 71% | 1009.4 hPa | 0 mm | - | - | - |
| 1777873500 | 5.56° C | 69% | 1009.6 hPa | 0 mm | - | - | - |
| 1777872600 | 6.11° C | 68% | 1009.5 hPa | 0 mm | - | - | - |
| 1777871700 | 6.11° C | 66% | 1009.6 hPa | 0 mm | - | - | - |
| 1777870800 | 6.11° C | 65% | 1009.6 hPa | 0 mm | - | - | - |
| 1777869900 | 6.11° C | 63% | 1009.7 hPa | 0 mm | - | - | - |
| 1777869000 | 6.11° C | 62% | 1009.5 hPa | 0 mm | - | - | - |
| 1777868100 | 6.11° C | 64% | 1009.5 hPa | 0 mm | - | - | - |
| 1777867200 | 5.56° C | 67% | 1009.6 hPa | 0 mm | - | - | - |
| 1777866300 | 5.56° C | 71% | 1009.5 hPa | 0 mm | - | - | - |
| 1777865400 | 5.56° C | 72% | 1009.3 hPa | 0 mm | - | - | - |
* Rain since midnight (hover to see other rain measurements)
** Current wind speed in m/s (hover to see current wind gust speed)